createdAt,value
2018-12-01T00:00:20.960Z,72.04
2018-12-01T00:02:49.528Z,72.00
2018-12-01T00:05:18.076Z,71.91
2018-12-01T00:07:46.930Z,72.03
2018-12-01T00:10:15.436Z,71.72
2018-12-01T00:12:43.995Z,71.95
2018-12-01T00:15:20.023Z,71.81
2018-12-01T00:17:48.629Z,71.63
2018-12-01T00:20:20.234Z,71.80
2018-12-01T00:22:48.860Z,72.02
2018-12-01T00:25:17.398Z,72.08
2018-12-01T00:27:45.953Z,72.24
2018-12-01T00:30:17.334Z,72.20
2018-12-01T00:32:48.828Z,72.31
2018-12-01T00:35:17.358Z,72.21
2018-12-01T00:37:45.850Z,72.54
2018-12-01T00:40:20.318Z,72.44
2018-12-01T00:42:48.893Z,72.45
2018-12-01T00:45:18.418Z,72.24
2018-12-01T00:47:52.117Z,72.33
2018-12-01T00:50:22.040Z,72.45
2018-12-01T00:52:51.223Z,72.45
2018-12-01T00:55:20.419Z,72.18
2018-12-01T00:57:48.971Z,72.38
2018-12-01T01:00:23.514Z,71.85
2018-12-01T01:02:53.812Z,71.76
2018-12-01T01:05:25.312Z,72.11
2018-12-01T01:07:54.334Z,72.23
2018-12-01T01:10:25.690Z,72.11
2018-12-01T01:12:54.283Z,72.06
2018-12-01T01:15:22.884Z,72.36
2018-12-01T01:17:51.790Z,72.54
2018-12-01T01:20:22.439Z,72.20
2018-12-01T01:22:51.392Z,72.08
2018-12-01T01:25:19.920Z,71.88
2018-12-01T01:27:48.459Z,71.93
2018-12-01T01:30:19.959Z,71.60
2018-12-01T01:32:49.116Z,71.76
2018-12-01T01:35:17.804Z,71.65
2018-12-01T01:37:46.360Z,71.72
2018-12-01T01:40:16.886Z,71.17
2018-12-01T01:42:45.655Z,71.23
2018-12-01T01:45:15.243Z,70.96
2018-12-01T01:47:43.970Z,71.11
2018-12-01T01:50:14.551Z,70.90
2018-12-01T01:52:43.110Z,71.01
2018-12-01T01:55:12.345Z,70.48
2018-12-01T01:57:41.348Z,71.00
2018-12-01T02:00:19.400Z,70.67
2018-12-01T02:02:49.831Z,70.99
2018-12-01T02:05:20.382Z,71.11
2018-12-01T02:07:49.061Z,71.06
2018-12-01T02:10:18.341Z,71.36
2018-12-01T02:12:46.991Z,70.90
2018-12-01T02:15:15.734Z,71.22
2018-12-01T02:17:44.386Z,70.98
2018-12-01T02:20:15.057Z,71.07
2018-12-01T02:22:43.654Z,71.28
2018-12-01T02:25:14.549Z,71.22
2018-12-01T02:27:43.352Z,71.38
2018-12-01T02:30:14.505Z,71.20
2018-12-01T02:32:43.048Z,71.39
2018-12-01T02:35:28.623Z,71.03
2018-12-01T02:37:57.418Z,71.25
2018-12-01T02:40:26.005Z,71.18
2018-12-01T02:42:54.513Z,71.07
2018-12-01T02:45:34.541Z,70.93
2018-12-01T02:48:04.611Z,71.33
2018-12-01T02:50:33.179Z,71.35
2018-12-01T02:53:02.839Z,71.40
2018-12-01T02:55:31.397Z,71.16
2018-12-01T02:58:00.389Z,71.26
2018-12-01T03:00:28.966Z,71.38
2018-12-01T03:02:57.501Z,71.43
2018-12-01T03:05:26.104Z,71.57
2018-12-01T03:07:54.696Z,71.45
2018-12-01T03:10:23.462Z,72.00
2018-12-01T03:12:53.263Z,71.57
2018-12-01T03:15:21.891Z,71.50
2018-12-01T03:17:51.490Z,71.59
2018-12-01T03:20:20.472Z,71.89
2018-12-01T03:22:49.047Z,71.69
2018-12-01T03:25:19.747Z,71.47
2018-12-01T03:27:49.126Z,71.46
2018-12-01T03:30:19.498Z,71.37
2018-12-01T03:32:48.689Z,71.42
2018-12-01T03:35:17.566Z,71.11
2018-12-01T03:37:47.613Z,71.45
2018-12-01T03:40:16.904Z,71.41
2018-12-01T03:42:45.470Z,71.64
2018-12-01T03:45:15.226Z,71.53
2018-12-01T03:47:43.757Z,71.57
2018-12-01T03:50:13.431Z,71.87
2018-12-01T03:52:42.085Z,71.51
2018-12-01T03:55:29.166Z,71.85
2018-12-01T03:57:57.847Z,71.87
2018-12-01T04:00:29.220Z,71.62
2018-12-01T04:02:58.385Z,71.68
2018-12-01T04:05:27.020Z,71.68
2018-12-01T04:07:55.544Z,71.72
2018-12-01T04:10:24.485Z,71.95
2018-12-01T04:12:53.913Z,71.83
2018-12-01T04:15:22.471Z,72.04
2018-12-01T04:17:51.363Z,72.02
2018-12-01T04:20:19.939Z,72.02
2018-12-01T04:22:48.610Z,72.20
2018-12-01T04:25:17.407Z,72.18
2018-12-01T04:27:45.949Z,72.13
2018-12-01T04:30:19.534Z,72.18
2018-12-01T04:32:48.237Z,72.08
2018-12-01T04:35:17.563Z,72.41
2018-12-01T04:37:47.050Z,72.13
2018-12-01T04:40:15.648Z,72.22
2018-12-01T04:42:44.863Z,72.45
2018-12-01T04:45:13.451Z,72.16
2018-12-01T04:47:41.975Z,72.65
2018-12-01T04:50:12.605Z,72.39
2018-12-01T04:52:41.519Z,72.47
2018-12-01T04:55:12.027Z,72.82
2018-12-01T04:57:40.581Z,72.79
2018-12-01T05:00:11.874Z,72.83
2018-12-01T05:02:40.398Z,73.07
2018-12-01T05:05:10.446Z,73.27
2018-12-01T05:07:39.008Z,73.43
2018-12-01T05:10:10.613Z,73.06
2018-12-01T05:12:39.213Z,73.21
2018-12-01T05:15:12.681Z,73.39
2018-12-01T05:17:41.639Z,73.40
2018-12-01T05:20:12.412Z,73.38
2018-12-01T05:22:40.979Z,73.36
2018-12-01T05:25:10.373Z,73.31
2018-12-01T05:27:38.900Z,73.13
2018-12-01T05:30:08.228Z,73.02
2018-12-01T05:32:37.331Z,73.34
2018-12-01T05:35:10.417Z,73.29
2018-12-01T05:37:38.933Z,73.31
2018-12-01T05:40:10.365Z,73.40
2018-12-01T05:42:39.402Z,73.45
2018-12-01T05:45:15.626Z,73.44
2018-12-01T05:47:44.344Z,73.55
2018-12-01T05:50:13.950Z,73.47
2018-12-01T05:52:42.439Z,73.43
2018-12-01T05:55:12.739Z,73.60
2018-12-01T05:57:41.274Z,73.58
2018-12-01T06:00:14.566Z,73.46
2018-12-01T06:02:43.087Z,73.87
2018-12-01T06:05:12.141Z,74.10
2018-12-01T06:07:41.509Z,73.66
2018-12-01T06:10:17.094Z,73.71
2018-12-01T06:12:45.993Z,73.72
2018-12-01T06:15:15.542Z,73.63
2018-12-01T06:17:44.354Z,73.87
2018-12-01T06:20:17.882Z,73.77
2018-12-01T06:22:46.500Z,73.57
2018-12-01T06:25:16.213Z,73.55
2018-12-01T06:27:45.083Z,74.03
2018-12-01T06:30:16.720Z,73.69
2018-12-01T06:32:45.786Z,73.73
2018-12-01T06:35:14.400Z,73.46
2018-12-01T06:37:42.918Z,73.60
2018-12-01T06:40:13.305Z,73.37
2018-12-01T06:42:41.834Z,73.62
2018-12-01T06:45:12.260Z,73.64
2018-12-01T06:47:40.980Z,73.61
2018-12-01T06:50:10.908Z,73.87
2018-12-01T06:52:41.093Z,73.62
2018-12-01T06:55:11.740Z,73.70
2018-12-01T06:57:40.859Z,73.31
2018-12-01T07:00:11.687Z,73.31
2018-12-01T07:02:40.699Z,73.54
2018-12-01T07:05:11.056Z,73.46
2018-12-01T07:07:39.690Z,73.74
2018-12-01T07:10:10.906Z,73.79
2018-12-01T07:12:40.264Z,73.50
2018-12-01T07:15:10.929Z,73.41
2018-12-01T07:17:39.927Z,73.62
2018-12-01T07:20:09.466Z,73.69
2018-12-01T07:22:38.014Z,73.35
2018-12-01T07:25:07.266Z,73.58
2018-12-01T07:27:35.949Z,73.40
2018-12-01T07:30:12.001Z,73.53
2018-12-01T07:32:41.176Z,73.62
2018-12-01T07:35:10.321Z,73.40
2018-12-01T07:37:39.242Z,73.47
2018-12-01T07:40:16.023Z,73.31
2018-12-01T07:42:44.589Z,73.46
2018-12-01T07:45:15.493Z,73.18
2018-12-01T07:47:44.223Z,73.38
2018-12-01T07:50:14.036Z,72.91
2018-12-01T07:52:43.948Z,72.95
2018-12-01T07:55:12.573Z,72.76
2018-12-01T07:57:41.158Z,72.90
2018-12-01T08:00:14.082Z,72.54
2018-12-01T08:02:43.520Z,72.36
2018-12-01T08:05:12.479Z,72.00
2018-12-01T08:07:41.431Z,72.27
2018-12-01T08:10:12.238Z,71.90
2018-12-01T08:12:40.788Z,71.83
2018-12-01T08:15:11.554Z,71.44
2018-12-01T08:17:40.043Z,71.41
2018-12-01T08:20:10.631Z,71.31
2018-12-01T08:22:39.208Z,71.47
2018-12-01T08:25:09.982Z,71.72
2018-12-01T08:27:39.372Z,71.29
2018-12-01T08:30:14.457Z,71.52
2018-12-01T08:32:43.009Z,71.36
2018-12-01T08:35:11.712Z,71.52
2018-12-01T08:37:40.281Z,71.50
2018-12-01T08:40:11.686Z,71.07
2018-12-01T08:42:40.448Z,71.19
2018-12-01T08:45:11.268Z,71.21
2018-12-01T08:47:40.563Z,71.21
2018-12-01T08:50:13.128Z,71.06
2018-12-01T08:52:42.324Z,71.20
2018-12-01T08:55:16.373Z,70.93
2018-12-01T08:57:44.958Z,70.83
2018-12-01T09:00:15.104Z,70.75
2018-12-01T09:02:43.911Z,70.80
2018-12-01T09:05:12.451Z,70.70
2018-12-01T09:07:41.510Z,70.52
2018-12-01T09:10:10.755Z,70.47
2018-12-01T09:12:39.294Z,70.99
2018-12-01T09:15:10.598Z,70.20
2018-12-01T09:17:39.701Z,70.15
2018-12-01T09:20:12.167Z,69.79
2018-12-01T09:22:44.683Z,69.82
2018-12-01T09:25:14.586Z,69.76
2018-12-01T09:27:43.228Z,69.36
2018-12-01T09:30:21.764Z,69.03
2018-12-01T09:32:50.794Z,68.82
2018-12-01T09:35:19.478Z,68.19
2018-12-01T09:37:47.995Z,68.25
2018-12-01T09:40:17.718Z,68.97
2018-12-01T09:42:46.743Z,68.50
2018-12-01T09:45:23.776Z,68.28
2018-12-01T09:47:53.818Z,68.08
2018-12-01T09:50:22.405Z,68.30
2018-12-01T09:52:52.350Z,68.10
2018-12-01T09:55:27.882Z,67.83
2018-12-01T09:57:56.899Z,67.50
2018-12-01T10:00:30.564Z,67.66
2018-12-01T10:03:00.294Z,67.10
2018-12-01T10:05:28.977Z,66.86
2018-12-01T10:07:57.578Z,66.92
2018-12-01T10:10:26.110Z,66.46
2018-12-01T10:12:55.791Z,66.58
2018-12-01T10:15:26.017Z,66.76
2018-12-01T10:17:54.693Z,66.72
2018-12-01T10:20:25.674Z,66.61
2018-12-01T10:22:54.356Z,65.85
2018-12-01T10:25:22.909Z,66.22
2018-12-01T10:27:51.462Z,66.59
2018-12-01T10:30:20.894Z,66.07
2018-12-01T10:32:50.251Z,66.11
2018-12-01T10:35:19.819Z,65.67
2018-12-01T10:37:53.630Z,65.23
2018-12-01T10:40:22.228Z,65.24
2018-12-01T10:42:51.275Z,65.01
2018-12-01T10:45:20.533Z,64.58
2018-12-01T10:47:49.203Z,64.69
2018-12-01T10:50:21.636Z,64.31
2018-12-01T10:52:51.251Z,63.98
2018-12-01T10:55:28.819Z,63.53
2018-12-01T10:58:06.651Z,62.84
2018-12-01T11:00:40.561Z,62.77
2018-12-01T11:03:14.987Z,63.34
2018-12-01T11:05:43.565Z,62.93
2018-12-01T11:08:14.311Z,62.45
2018-12-01T11:10:43.818Z,61.59
2018-12-01T11:13:13.530Z,62.21
2018-12-01T11:15:42.135Z,61.30
2018-12-01T11:18:10.677Z,61.67
2018-12-01T11:20:39.503Z,61.86
2018-12-01T11:23:08.472Z,62.18
2018-12-01T11:25:37.321Z,62.46
2018-12-01T11:28:06.065Z,62.91
2018-12-01T11:30:36.167Z,62.60
2018-12-01T11:33:05.846Z,62.19
2018-12-01T11:35:34.396Z,61.29
2018-12-01T11:38:05.297Z,61.79
2018-12-01T11:40:33.924Z,61.36
2018-12-01T11:43:03.848Z,61.11
2018-12-01T11:45:32.415Z,61.51
2018-12-01T11:48:03.264Z,61.58
2018-12-01T11:50:31.873Z,61.42
2018-12-01T11:53:00.534Z,60.86
2018-12-01T11:55:29.566Z,60.24
2018-12-01T11:57:58.352Z,60.12
2018-12-01T12:00:27.590Z,60.29
2018-12-01T12:02:57.422Z,61.07
2018-12-01T12:05:25.978Z,60.85
2018-12-01T12:08:21.449Z,59.60
2018-12-01T12:10:50.043Z,60.00
2018-12-01T12:13:19.159Z,60.43
2018-12-01T12:15:47.775Z,60.86
2018-12-01T12:18:16.551Z,60.84
2018-12-01T12:20:46.238Z,60.06
2018-12-01T12:23:14.814Z,59.62
2018-12-01T12:25:43.439Z,58.97
2018-12-01T12:28:12.089Z,59.30
2018-12-01T12:30:40.712Z,59.44
2018-12-01T12:33:09.467Z,60.13
2018-12-01T12:35:38.040Z,59.63
2018-12-01T12:38:06.680Z,59.72
2018-12-01T12:40:35.275Z,59.94
2018-12-01T12:43:06.519Z,59.93
2018-12-01T12:45:35.294Z,60.10
2018-12-01T12:48:06.632Z,59.93
2018-12-01T12:50:36.662Z,59.07
2018-12-01T12:53:06.108Z,59.26
2018-12-01T12:55:35.205Z,59.35
2018-12-01T12:58:05.978Z,59.29
2018-12-01T13:00:34.972Z,58.39
2018-12-01T13:03:07.657Z,58.55
2018-12-01T13:05:37.885Z,58.62
2018-12-01T13:08:08.333Z,59.01
2018-12-01T13:10:37.027Z,59.48
2018-12-01T13:13:06.615Z,59.74
2018-12-01T13:15:36.471Z,60.26
2018-12-01T13:18:07.271Z,60.26
2018-12-01T13:20:35.881Z,60.83
2018-12-01T13:23:06.656Z,60.40
2018-12-01T13:25:35.286Z,59.75
2018-12-01T13:28:09.345Z,60.10
2018-12-01T13:30:45.183Z,59.21
2018-12-01T13:33:13.809Z,58.88
2018-12-01T13:35:42.413Z,58.05
2018-12-01T13:38:11.000Z,59.56
2018-12-01T13:40:39.633Z,58.36
2018-12-01T13:43:09.549Z,58.68
2018-12-01T13:45:38.592Z,58.17
2018-12-01T13:48:07.942Z,58.12
2018-12-01T13:50:36.628Z,58.23
2018-12-01T13:53:07.268Z,58.59
2018-12-01T13:55:35.862Z,58.84
2018-12-01T13:58:06.920Z,58.89
2018-12-01T14:00:36.015Z,58.91
2018-12-01T14:03:05.708Z,59.80
2018-12-01T14:05:34.304Z,58.86
2018-12-01T14:08:04.975Z,59.12
2018-12-01T14:10:33.702Z,59.17
2018-12-01T14:13:06.756Z,58.70
2018-12-01T14:15:35.438Z,59.28
2018-12-01T14:18:07.657Z,59.37
2018-12-01T14:23:14.439Z,59.14
2018-12-01T14:25:43.083Z,59.32
2018-12-01T14:28:12.599Z,58.97
2018-12-01T14:30:41.281Z,58.68
2018-12-01T14:33:10.982Z,58.92
2018-12-01T14:35:39.761Z,59.10
2018-12-01T14:38:17.572Z,58.97
2018-12-01T14:40:48.312Z,59.44
2018-12-01T14:43:17.151Z,59.46
2018-12-01T14:45:48.018Z,59.39
2018-12-01T14:48:18.602Z,59.07
2018-12-01T14:50:48.803Z,59.37
2018-12-01T14:53:17.956Z,59.92
2018-12-01T14:55:46.692Z,59.97
2018-12-01T14:58:16.167Z,59.51
2018-12-01T15:00:44.826Z,60.58
2018-12-01T15:03:13.486Z,60.20
2018-12-01T15:05:42.421Z,60.33
2018-12-01T15:08:11.094Z,60.52
2018-12-01T15:10:39.766Z,59.58
2018-12-01T15:13:08.802Z,59.90
2018-12-01T15:15:37.866Z,60.77
2018-12-01T15:18:06.683Z,59.71
2018-12-01T15:20:35.674Z,60.13
2018-12-01T15:23:08.975Z,60.20
2018-12-01T15:25:37.610Z,60.48
2018-12-01T15:28:06.607Z,59.90
2018-12-01T15:30:35.275Z,60.58
2018-12-01T15:33:09.155Z,59.77
2018-12-01T15:35:37.824Z,59.92
2018-12-01T15:38:08.140Z,59.85
2018-12-01T15:40:38.185Z,59.70
2018-12-01T15:43:06.935Z,59.62
2018-12-01T15:45:36.052Z,59.49
2018-12-01T15:48:06.587Z,59.49
2018-12-01T15:50:37.121Z,59.90
2018-12-01T15:53:09.090Z,59.67
2018-12-01T15:55:38.552Z,59.21
2018-12-01T15:58:07.802Z,59.65
2018-12-01T16:00:37.241Z,59.37
2018-12-01T16:03:06.440Z,59.74
2018-12-01T16:05:35.221Z,60.24
2018-12-01T16:08:06.813Z,59.71
2018-12-01T16:10:35.580Z,59.94
2018-12-01T16:13:10.382Z,59.86
2018-12-01T16:15:42.165Z,59.72
2018-12-01T16:18:11.319Z,60.30
2018-12-01T16:20:40.085Z,59.90
2018-12-01T16:23:08.750Z,59.78
2018-12-01T16:25:37.420Z,60.36
2018-12-01T16:28:06.756Z,60.58
2018-12-01T16:30:42.485Z,59.82
2018-12-01T16:33:20.072Z,60.29
2018-12-01T16:35:49.881Z,59.65
2018-12-01T16:38:24.148Z,60.07
2018-12-01T16:40:59.572Z,59.36
2018-12-01T16:43:29.803Z,59.51
2018-12-01T16:45:58.478Z,59.40
2018-12-01T16:48:27.470Z,59.34
2018-12-01T16:50:56.493Z,59.67
2018-12-01T16:53:25.410Z,59.92
2018-12-01T16:55:54.258Z,59.69
2018-12-01T16:58:23.292Z,59.82
2018-12-01T17:00:52.148Z,59.57
2018-12-01T17:03:21.258Z,59.83
2018-12-01T17:05:51.941Z,59.76
2018-12-01T17:08:20.623Z,60.05
2018-12-01T17:10:49.537Z,59.39
2018-12-01T17:13:18.249Z,59.98
2018-12-01T17:15:46.884Z,59.80
2018-12-01T17:18:15.570Z,59.74
2018-12-01T17:20:44.433Z,60.22
2018-12-01T17:23:15.713Z,60.63
2018-12-01T17:25:44.383Z,60.52
2018-12-01T17:28:17.109Z,60.66
2018-12-01T17:30:45.865Z,61.04
2018-12-01T17:33:14.526Z,61.28
2018-12-01T17:35:43.209Z,62.12
2018-12-01T17:38:20.132Z,62.78
2018-12-01T17:40:54.738Z,63.71
2018-12-01T17:43:25.759Z,64.89
2018-12-01T17:45:54.651Z,64.83
2018-12-01T17:48:23.836Z,65.75
2018-12-01T17:50:52.629Z,66.26
2018-12-01T17:53:21.300Z,67.03
2018-12-01T17:55:50.017Z,67.83
2018-12-01T17:58:18.997Z,68.58
2018-12-01T18:00:49.491Z,68.31
2018-12-01T18:03:18.227Z,68.74
2018-12-01T18:05:48.277Z,68.74
2018-12-01T18:08:19.592Z,69.05
2018-12-01T18:10:49.622Z,68.78
2018-12-01T18:13:18.358Z,68.81
2018-12-01T18:15:47.170Z,68.78
2018-12-01T18:18:15.845Z,70.21
2018-12-01T18:20:44.570Z,69.98
2018-12-01T18:23:18.766Z,70.93
2018-12-01T18:25:49.829Z,71.45
2018-12-01T18:28:25.043Z,71.90
2018-12-01T18:30:53.959Z,72.31
2018-12-01T18:33:36.628Z,72.16
2018-12-01T18:36:08.472Z,72.18
2018-12-01T18:38:37.090Z,71.81
2018-12-01T18:41:06.622Z,71.86
2018-12-01T18:43:35.354Z,71.68
2018-12-01T18:46:10.390Z,71.93
2018-12-01T18:48:39.709Z,72.34
2018-12-01T18:51:08.625Z,72.49
2018-12-01T18:53:37.290Z,72.77
2018-12-01T18:56:06.696Z,72.99
2018-12-01T18:58:35.484Z,72.60
2018-12-01T19:01:06.960Z,73.11
2018-12-01T19:03:36.685Z,72.72
2018-12-01T19:06:06.986Z,72.85
2018-12-01T19:08:35.708Z,72.78
2018-12-01T19:11:07.563Z,71.93
2018-12-01T19:13:36.520Z,72.01
2018-12-01T19:16:06.683Z,72.09
2018-12-01T19:18:35.966Z,72.12
2018-12-01T19:21:05.619Z,72.07
2018-12-01T19:23:34.728Z,72.53
2018-12-01T19:26:04.741Z,72.48
2018-12-01T19:28:33.355Z,72.83
2018-12-01T19:31:04.033Z,73.31
2018-12-01T19:33:32.849Z,73.04
2018-12-01T19:36:03.007Z,73.31
2018-12-01T19:38:31.847Z,73.69
2018-12-01T19:41:03.980Z,73.71
2018-12-01T19:43:33.194Z,73.59
2018-12-01T19:46:03.291Z,73.96
2018-12-01T19:48:31.960Z,73.75
2018-12-01T19:51:00.841Z,73.91
2018-12-01T19:53:30.805Z,74.31
2018-12-01T19:55:59.572Z,74.71
2018-12-01T19:58:29.811Z,74.57
2018-12-01T20:00:59.386Z,74.66
2018-12-01T20:03:29.754Z,74.67
2018-12-01T20:05:58.577Z,75.19
2018-12-01T20:08:27.333Z,75.48
2018-12-01T20:10:58.472Z,75.00
2018-12-01T20:13:48.346Z,75.11
2018-12-01T20:16:25.324Z,74.82
2018-12-01T20:18:54.718Z,75.36
2018-12-01T20:21:23.876Z,75.25
2018-12-01T20:23:54.679Z,75.79
2018-12-01T20:26:23.321Z,75.74
2018-12-01T20:28:52.333Z,75.69
2018-12-01T20:31:20.970Z,75.83
2018-12-01T20:33:50.493Z,75.78
2018-12-01T20:36:28.027Z,75.85
2018-12-01T20:40:00.479Z,75.73
2018-12-01T20:42:29.255Z,76.10
2018-12-01T20:44:58.147Z,75.70
2018-12-01T20:47:26.895Z,75.82
2018-12-01T20:49:55.519Z,75.64
2018-12-01T20:52:24.494Z,75.90
2018-12-01T20:54:53.467Z,75.74
2018-12-01T20:57:25.731Z,75.97
2018-12-01T20:59:54.419Z,75.97
2018-12-01T21:02:23.112Z,75.52
2018-12-01T21:04:51.818Z,75.68
2018-12-01T21:07:20.451Z,75.73
2018-12-01T21:09:49.121Z,75.74
2018-12-01T21:12:18.257Z,75.76
2018-12-01T21:14:46.913Z,75.89
2018-12-01T21:17:15.718Z,75.84
2018-12-01T21:19:44.702Z,75.79
2018-12-01T21:22:13.397Z,75.61
2018-12-01T21:24:42.074Z,75.50
2018-12-01T21:27:10.858Z,75.74
2018-12-01T21:29:39.682Z,76.05
2018-12-01T21:32:08.408Z,75.69
2018-12-01T21:34:37.631Z,75.72
2018-12-01T21:37:06.832Z,75.88
2018-12-01T21:39:35.548Z,75.29
2018-12-01T21:42:05.412Z,75.16
2018-12-01T21:44:34.472Z,75.59
2018-12-01T21:47:04.740Z,75.59
2018-12-01T21:49:33.717Z,75.18
2018-12-01T21:52:03.803Z,75.19
2018-12-01T21:54:32.449Z,75.11
2018-12-01T21:57:03.277Z,75.52
2018-12-01T21:59:31.906Z,75.64
2018-12-01T22:02:02.972Z,75.43
2018-12-01T22:04:31.757Z,75.81
2018-12-01T22:07:00.402Z,75.36
2018-12-01T22:09:29.443Z,75.52
2018-12-01T22:11:58.133Z,75.36
2018-12-01T22:14:26.817Z,75.18
2018-12-01T22:16:55.711Z,75.38
2018-12-01T22:19:24.355Z,75.25
2018-12-01T22:21:52.998Z,75.29
2018-12-01T22:24:21.847Z,75.04
2018-12-01T22:26:50.654Z,74.93
2018-12-01T22:29:19.299Z,75.30
2018-12-01T22:31:48.181Z,75.29
2018-12-01T22:34:16.944Z,75.38
2018-12-01T22:36:46.173Z,74.97
2018-12-01T22:39:14.879Z,75.52
2018-12-01T22:41:43.520Z,75.04
2018-12-01T22:44:12.230Z,75.68
2018-12-01T22:46:40.986Z,75.32
2018-12-01T22:49:15.982Z,75.54
2018-12-01T22:51:44.672Z,75.46
2018-12-01T22:54:14.027Z,75.25
2018-12-01T22:56:43.004Z,75.87
2018-12-01T22:59:11.872Z,75.81
2018-12-01T23:01:40.589Z,75.56
2018-12-01T23:04:09.237Z,75.65
2018-12-01T23:06:38.308Z,75.10
2018-12-01T23:09:07.994Z,75.72
2018-12-01T23:11:36.907Z,75.75
2018-12-01T23:14:05.811Z,75.76
2018-12-01T23:16:34.415Z,75.38
2018-12-01T23:19:04.939Z,75.52
2018-12-01T23:21:33.664Z,75.14
2018-12-01T23:24:03.854Z,75.44
2018-12-01T23:26:32.500Z,75.02
2018-12-01T23:29:03.219Z,74.91
2018-12-01T23:31:31.881Z,74.91
2018-12-01T23:34:00.531Z,74.68
2018-12-01T23:36:29.166Z,74.95
2018-12-01T23:38:57.950Z,75.08
2018-12-01T23:41:26.594Z,75.00
2018-12-01T23:43:55.604Z,75.07
2018-12-01T23:46:24.309Z,75.27
2018-12-01T23:48:52.958Z,75.17
2018-12-01T23:51:21.588Z,74.84
2018-12-01T23:53:50.603Z,75.13
2018-12-01T23:56:19.267Z,74.91
2018-12-01T23:58:47.896Z,74.82
